createdAt,value
2019-02-23T00:01:00.727Z,96.90
2019-02-23T00:03:29.822Z,96.70
2019-02-23T00:05:58.759Z,96.70
2019-02-23T00:08:27.732Z,96.70
2019-02-23T00:10:56.738Z,96.70
2019-02-23T00:13:25.728Z,96.60
2019-02-23T00:15:54.865Z,96.60
2019-02-23T00:18:23.892Z,96.50
2019-02-23T00:20:52.868Z,96.50
2019-02-23T00:23:21.905Z,96.60
2019-02-23T00:25:50.869Z,96.70
2019-02-23T00:28:19.999Z,96.90
2019-02-23T00:30:49.083Z,97.00
2019-02-23T00:33:18.191Z,97.00
2019-02-23T00:35:47.123Z,97.10
2019-02-23T00:38:16.165Z,97.10
2019-02-23T00:40:45.235Z,97.00
2019-02-23T00:43:14.191Z,97.00
2019-02-23T00:45:43.217Z,96.90
2019-02-23T00:48:12.177Z,97.00
2019-02-23T00:50:41.242Z,97.10
2019-02-23T00:53:10.302Z,97.00
2019-02-23T00:55:39.405Z,97.10
2019-02-23T00:58:08.490Z,97.30
2019-02-23T01:00:37.579Z,97.30
2019-02-23T01:03:06.739Z,97.40
2019-02-23T01:05:35.704Z,97.30
2019-02-23T01:08:04.839Z,97.20
2019-02-23T01:10:33.801Z,97.30
2019-02-23T01:13:02.864Z,97.00
2019-02-23T01:15:31.927Z,97.00
2019-02-23T01:18:01.009Z,97.00
2019-02-23T01:20:30.103Z,97.10
2019-02-23T01:22:59.130Z,97.10
2019-02-23T01:25:28.204Z,97.20
2019-02-23T01:27:57.128Z,97.30
2019-02-23T01:30:26.241Z,97.30
2019-02-23T01:32:55.375Z,97.30
2019-02-23T01:35:24.563Z,97.40
2019-02-23T01:37:53.635Z,97.30
2019-02-23T01:40:22.675Z,97.40
2019-02-23T01:42:51.840Z,97.30
2019-02-23T01:45:20.949Z,97.30
2019-02-23T01:47:49.940Z,97.40
2019-02-23T01:50:18.995Z,97.40
2019-02-23T01:52:48.055Z,97.30
2019-02-23T01:55:17.087Z,97.30
2019-02-23T01:57:46.178Z,97.30
2019-02-23T02:00:16.339Z,97.30
2019-02-23T02:02:47.343Z,97.30
2019-02-23T02:05:16.360Z,97.50
2019-02-23T02:07:45.457Z,97.60
2019-02-23T02:10:15.335Z,97.70
2019-02-23T02:12:44.312Z,97.70
2019-02-23T02:15:14.506Z,97.80
2019-02-23T02:17:43.550Z,98.00
2019-02-23T02:20:12.628Z,98.20
2019-02-23T02:22:41.703Z,98.30
2019-02-23T02:25:10.741Z,98.30
2019-02-23T02:27:39.739Z,98.50
2019-02-23T02:30:10.144Z,98.40
2019-02-23T02:32:39.214Z,98.50
2019-02-23T02:35:09.264Z,98.50
2019-02-23T02:37:38.375Z,98.40
2019-02-23T02:40:08.435Z,98.50
2019-02-23T02:42:37.532Z,98.50
2019-02-23T02:45:08.237Z,98.50
2019-02-23T02:47:37.287Z,98.40
2019-02-23T02:50:08.090Z,98.40
2019-02-23T02:52:37.171Z,98.50
2019-02-23T02:55:07.168Z,98.30
2019-02-23T02:57:36.221Z,98.20
2019-02-23T03:00:06.404Z,98.30
2019-02-23T03:02:35.340Z,98.30
2019-02-23T03:05:04.600Z,98.30
2019-02-23T03:07:33.675Z,98.30
2019-02-23T03:10:02.697Z,98.30
2019-02-23T03:12:31.616Z,98.20
2019-02-23T03:15:00.659Z,98.30
2019-02-23T03:17:29.652Z,98.30
2019-02-23T03:19:58.643Z,98.30
2019-02-23T03:22:27.807Z,98.20
2019-02-23T03:24:56.936Z,98.20
2019-02-23T03:27:26.019Z,98.20
2019-02-23T03:29:55.003Z,98.20
2019-02-23T03:32:24.081Z,98.10
2019-02-23T03:34:53.071Z,98.10
2019-02-23T03:37:22.123Z,98.10
2019-02-23T03:39:51.129Z,98.10
2019-02-23T03:42:20.141Z,98.30
2019-02-23T03:44:49.099Z,98.30
2019-02-23T03:47:18.164Z,98.30
2019-02-23T03:49:47.245Z,98.40
2019-02-23T03:52:16.339Z,98.40
2019-02-23T03:54:45.420Z,98.40
2019-02-23T03:57:14.339Z,98.50
2019-02-23T03:59:43.352Z,98.50
2019-02-23T04:02:12.442Z,98.60
2019-02-23T04:04:41.523Z,98.70
2019-02-23T04:07:10.571Z,98.70
2019-02-23T04:09:39.669Z,98.70
2019-02-23T04:12:08.743Z,98.70
2019-02-23T04:14:37.783Z,98.80
2019-02-23T04:17:06.836Z,98.80
2019-02-23T04:19:35.857Z,98.80
2019-02-23T04:22:04.890Z,98.80
2019-02-23T04:24:33.905Z,98.70
2019-02-23T04:27:02.803Z,98.70
2019-02-23T04:29:31.865Z,98.70
2019-02-23T04:32:01.013Z,98.70
2019-02-23T04:34:30.083Z,98.80
2019-02-23T04:36:59.146Z,98.90
2019-02-23T04:39:28.125Z,98.90
2019-02-23T04:41:57.108Z,98.90
2019-02-23T04:44:25.994Z,98.90
2019-02-23T04:46:55.133Z,98.90
2019-02-23T04:49:26.021Z,98.90
2019-02-23T04:51:55.069Z,98.90
2019-02-23T04:54:24.215Z,98.70
2019-02-23T04:56:53.307Z,98.70
2019-02-23T04:59:22.389Z,98.80
2019-02-23T05:01:51.416Z,99.00
2019-02-23T05:04:20.407Z,99.00
2019-02-23T05:06:49.435Z,99.00
2019-02-23T05:09:18.531Z,99.00
2019-02-23T05:11:47.731Z,99.10
2019-02-23T05:14:16.815Z,99.10
2019-02-23T05:16:45.775Z,99.50
2019-02-23T05:19:14.860Z,99.40
2019-02-23T05:21:43.939Z,99.30
2019-02-23T05:24:13.050Z,99.30
2019-02-23T05:26:42.161Z,99.20
2019-02-23T05:29:11.276Z,99.20
2019-02-23T05:31:40.359Z,98.80
2019-02-23T05:34:09.424Z,98.60
2019-02-23T05:36:38.538Z,98.40
2019-02-23T05:39:07.799Z,98.00
2019-02-23T05:41:36.714Z,97.90
2019-02-23T05:44:05.754Z,98.10
2019-02-23T05:46:34.677Z,98.10
2019-02-23T05:49:03.763Z,98.10
2019-02-23T05:51:38.704Z,98.40
2019-02-23T05:54:03.619Z,98.50
2019-02-23T05:56:32.619Z,98.80
2019-02-23T05:59:01.701Z,98.80
2019-02-23T06:01:30.778Z,98.80
2019-02-23T06:03:59.748Z,99.00
2019-02-23T06:06:28.863Z,98.90
2019-02-23T06:08:57.792Z,99.00
2019-02-23T06:11:26.863Z,98.90
2019-02-23T06:13:55.817Z,99.00
2019-02-23T06:16:24.884Z,98.90
2019-02-23T06:18:53.755Z,98.90
2019-02-23T06:21:22.867Z,98.80
2019-02-23T06:23:51.846Z,99.00
2019-02-23T06:26:21.083Z,99.00
2019-02-23T06:28:50.140Z,99.10
2019-02-23T06:31:19.171Z,99.00
2019-02-23T06:33:48.122Z,99.20
2019-02-23T06:36:17.151Z,99.20
2019-02-23T06:38:46.242Z,99.20
2019-02-23T06:41:15.223Z,99.20
2019-02-23T06:43:44.215Z,99.20
2019-02-23T06:46:13.167Z,99.20
2019-02-23T06:48:42.178Z,99.20
2019-02-23T06:51:11.234Z,99.20
2019-02-23T06:53:40.345Z,99.20
2019-02-23T06:56:09.429Z,99.20
2019-02-23T06:58:38.521Z,99.20
2019-02-23T07:01:07.556Z,99.20
2019-02-23T07:03:37.135Z,99.20
2019-02-23T07:06:06.214Z,99.10
2019-02-23T07:08:35.192Z,99.20
2019-02-23T07:11:04.253Z,99.20
2019-02-23T07:13:33.144Z,99.20
2019-02-23T07:16:02.278Z,99.20
2019-02-23T07:18:31.340Z,99.10
2019-02-23T07:21:00.346Z,99.00
2019-02-23T07:23:29.438Z,99.00
2019-02-23T07:25:58.519Z,99.00
2019-02-23T07:28:27.530Z,99.20
2019-02-23T07:30:56.621Z,99.20
2019-02-23T07:33:32.685Z,99.20
2019-02-23T07:35:56.392Z,99.20
2019-02-23T07:38:25.393Z,99.10
2019-02-23T07:40:54.391Z,99.10
2019-02-23T07:43:23.466Z,99.10
2019-02-23T07:45:52.515Z,99.10
2019-02-23T07:48:21.531Z,99.20
2019-02-23T07:50:52.588Z,99.20
2019-02-23T07:53:21.298Z,99.10
2019-02-23T07:55:50.395Z,99.10
2019-02-23T07:58:19.489Z,99.10
2019-02-23T08:00:48.585Z,99.00
2019-02-23T08:03:17.578Z,99.00
2019-02-23T08:05:46.739Z,99.00
2019-02-23T08:08:15.811Z,98.90
2019-02-23T08:10:44.879Z,98.90
2019-02-23T08:13:13.951Z,98.70
2019-02-23T08:15:43.009Z,98.70
2019-02-23T08:18:12.030Z,98.60
2019-02-23T08:20:41.079Z,98.60
2019-02-23T08:23:10.102Z,98.40
2019-02-23T08:25:39.080Z,98.40
2019-02-23T08:28:08.192Z,98.30
2019-02-23T08:30:37.312Z,98.20
2019-02-23T08:33:06.313Z,98.10
2019-02-23T08:35:35.356Z,97.80
2019-02-23T08:38:04.468Z,97.50
2019-02-23T08:40:33.575Z,97.40
2019-02-23T08:43:02.588Z,97.10
2019-02-23T08:45:31.682Z,97.00
2019-02-23T08:48:00.715Z,96.80
2019-02-23T08:50:29.851Z,96.50
2019-02-23T08:52:58.875Z,96.40
2019-02-23T08:55:28.007Z,96.10
2019-02-23T08:57:57.084Z,95.90
2019-02-23T09:00:26.151Z,95.60
2019-02-23T09:02:55.232Z,95.70
2019-02-23T09:05:24.324Z,95.50
2019-02-23T09:07:53.383Z,95.30
2019-02-23T09:10:22.450Z,95.10
2019-02-23T09:12:51.366Z,94.60
2019-02-23T09:15:22.281Z,94.50
2019-02-23T09:17:51.090Z,94.60
2019-02-23T09:20:28.529Z,94.30
2019-02-23T09:22:59.780Z,94.00
2019-02-23T09:25:21.843Z,93.70
2019-02-23T09:27:50.900Z,93.50
2019-02-23T09:30:20.100Z,93.60
2019-02-23T09:32:49.195Z,93.60
2019-02-23T09:35:18.266Z,93.10
2019-02-23T09:37:47.342Z,92.70
2019-02-23T09:40:16.459Z,92.70
2019-02-23T09:42:45.555Z,92.50
2019-02-23T09:45:14.577Z,92.50
2019-02-23T09:47:43.588Z,92.30
2019-02-23T09:50:12.634Z,91.90
2019-02-23T09:52:41.611Z,91.70
2019-02-23T09:55:10.702Z,91.50
2019-02-23T09:57:39.863Z,91.30
2019-02-23T10:00:09.596Z,91.50
2019-02-23T10:02:38.653Z,90.80
2019-02-23T10:05:07.792Z,90.90
2019-02-23T10:07:36.957Z,91.20
2019-02-23T10:10:06.508Z,90.80
2019-02-23T10:12:35.561Z,90.40
2019-02-23T10:15:04.703Z,90.10
2019-02-23T10:17:33.752Z,90.20
2019-02-23T10:20:02.780Z,90.00
2019-02-23T10:22:31.666Z,88.90
2019-02-23T10:25:00.753Z,88.80
2019-02-23T10:27:29.714Z,87.40
2019-02-23T10:29:58.763Z,86.80
2019-02-23T10:32:27.674Z,85.60
2019-02-23T10:34:56.749Z,84.30
2019-02-23T10:37:25.874Z,82.60
2019-02-23T10:39:54.878Z,80.50
2019-02-23T10:42:23.928Z,79.20
2019-02-23T10:44:52.947Z,77.40
2019-02-23T10:47:21.851Z,75.70
2019-02-23T10:49:50.827Z,74.80
2019-02-23T10:52:19.920Z,74.40
2019-02-23T10:54:49.003Z,72.60
2019-02-23T10:57:18.039Z,71.20
2019-02-23T10:59:47.117Z,71.30
2019-02-23T11:02:16.151Z,69.00
2019-02-23T11:04:45.242Z,66.30
2019-02-23T11:07:14.314Z,65.70
2019-02-23T11:09:43.504Z,64.50
2019-02-23T11:12:12.635Z,62.20
2019-02-23T11:14:41.618Z,62.30
2019-02-23T11:17:10.701Z,61.50
2019-02-23T11:19:39.801Z,60.10
2019-02-23T11:22:08.913Z,58.10
2019-02-23T11:24:37.919Z,57.60
2019-02-23T11:27:07.016Z,58.00
2019-02-23T11:29:36.022Z,57.10
2019-02-23T11:32:05.124Z,56.20
2019-02-23T11:34:34.122Z,55.90
2019-02-23T11:37:03.179Z,56.10
2019-02-23T11:39:32.144Z,54.30
2019-02-23T11:42:01.230Z,52.50
2019-02-23T11:44:30.246Z,50.50
2019-02-23T11:47:00.160Z,50.00
2019-02-23T11:49:29.528Z,48.80
2019-02-23T11:51:58.527Z,47.50
2019-02-23T11:54:27.489Z,47.20
2019-02-23T11:56:56.508Z,48.70
2019-02-23T11:59:25.627Z,49.40
2019-02-23T12:01:54.679Z,50.40
2019-02-23T12:04:23.751Z,49.00
2019-02-23T12:06:52.755Z,48.70
2019-02-23T12:09:21.706Z,47.40
2019-02-23T12:11:50.679Z,46.20
2019-02-23T12:14:19.692Z,46.20
2019-02-23T12:16:48.767Z,46.00
2019-02-23T12:19:17.796Z,44.40
2019-02-23T12:21:46.939Z,43.80
2019-02-23T12:24:15.987Z,42.80
2019-02-23T12:26:44.957Z,42.40
2019-02-23T12:29:14.052Z,43.10
2019-02-23T12:31:43.121Z,42.70
2019-02-23T12:34:12.192Z,42.10
2019-02-23T12:36:41.231Z,41.60
2019-02-23T12:39:10.287Z,40.40
2019-02-23T12:41:39.378Z,40.40
2019-02-23T12:44:08.584Z,39.40
2019-02-23T12:46:37.611Z,39.70
2019-02-23T12:49:06.619Z,37.70
2019-02-23T12:51:35.653Z,37.90
2019-02-23T12:54:04.837Z,37.60
2019-02-23T12:56:33.891Z,36.70
2019-02-23T12:59:02.876Z,36.80
2019-02-23T13:01:31.852Z,37.00
2019-02-23T13:04:00.859Z,37.30
2019-02-23T13:06:29.819Z,38.40
2019-02-23T13:09:21.859Z,38.20
2019-02-23T13:12:27.829Z,38.90
2019-02-23T13:15:20.670Z,37.90
2019-02-23T13:18:21.958Z,37.50
2019-02-23T13:21:20.370Z,36.00
2019-02-23T13:24:13.895Z,36.50
2019-02-23T13:27:12.538Z,36.00
2019-02-23T13:30:10.815Z,36.30
2019-02-23T13:33:07.074Z,35.50
2019-02-23T13:36:32.607Z,35.10
2019-02-23T13:39:52.127Z,35.50
2019-02-23T13:42:44.967Z,35.10
2019-02-23T13:45:37.376Z,35.30
2019-02-23T13:48:33.267Z,34.90
2019-02-23T13:51:13.794Z,34.30
2019-02-23T13:54:20.403Z,34.10
2019-02-23T13:57:12.884Z,33.00
2019-02-23T14:00:14.725Z,32.60
2019-02-23T14:03:00.351Z,32.30
2019-02-23T14:06:31.895Z,32.20
2019-02-23T14:10:00.330Z,32.60
2019-02-23T14:13:24.044Z,32.80
2019-02-23T14:16:33.467Z,32.70
2019-02-23T14:19:32.511Z,32.30
2019-02-23T14:22:09.731Z,32.30
2019-02-23T14:25:23.256Z,33.10
2019-02-23T14:28:42.759Z,33.30
2019-02-23T14:31:52.031Z,34.60
2019-02-23T14:34:52.891Z,33.70
2019-02-23T14:37:58.527Z,32.40
2019-02-23T14:41:06.489Z,31.30
2019-02-23T14:44:05.333Z,31.60
2019-02-23T14:47:21.014Z,31.50
2019-02-23T14:50:13.030Z,30.80
2019-02-23T14:53:26.273Z,31.00
2019-02-23T14:56:54.547Z,32.50
2019-02-23T14:59:55.724Z,33.50
2019-02-23T15:03:08.410Z,33.30
2019-02-23T15:05:59.360Z,33.30
2019-02-23T15:09:30.588Z,33.60
2019-02-23T15:12:43.118Z,33.40
2019-02-23T15:16:16.602Z,33.30
2019-02-23T15:19:26.667Z,33.80
2019-02-23T15:22:32.531Z,37.40
2019-02-23T15:25:35.452Z,37.90
2019-02-23T15:28:30.235Z,38.60
2019-02-23T15:30:54.944Z,39.60
2019-02-23T15:34:07.243Z,38.90
2019-02-23T15:37:06.979Z,38.90
2019-02-23T15:40:03.255Z,39.90
2019-02-23T15:43:13.922Z,40.30
2019-02-23T15:46:13.859Z,39.20
2019-02-23T15:49:20.794Z,40.80
2019-02-23T15:51:49.821Z,41.20
2019-02-23T15:54:18.942Z,42.60
2019-02-23T15:56:48.153Z,43.00
2019-02-23T15:59:17.239Z,44.20
2019-02-23T16:01:46.327Z,43.60
2019-02-23T16:04:15.341Z,43.20
2019-02-23T16:06:44.504Z,44.30
2019-02-23T16:09:13.574Z,43.90
2019-02-23T16:11:45.106Z,45.10
2019-02-23T16:14:13.404Z,47.00
2019-02-23T16:16:42.359Z,48.20
2019-02-23T16:19:11.436Z,48.60
2019-02-23T16:21:40.395Z,49.10
2019-02-23T16:24:09.469Z,49.20
2019-02-23T16:26:38.541Z,50.20
2019-02-23T16:29:07.610Z,50.80
2019-02-23T16:31:36.674Z,51.40
2019-02-23T16:34:07.373Z,51.50
2019-02-23T16:36:36.432Z,51.80
2019-02-23T16:39:10.539Z,52.50
2019-02-23T16:41:39.789Z,53.70
2019-02-23T16:44:09.112Z,53.70
2019-02-23T16:46:38.129Z,53.20
2019-02-23T16:49:07.232Z,52.70
2019-02-23T16:51:36.323Z,54.50
2019-02-23T16:54:05.455Z,56.20
2019-02-23T16:56:34.359Z,57.00
2019-02-23T16:59:03.436Z,57.50
2019-02-23T17:01:32.495Z,58.20
2019-02-23T17:04:01.507Z,58.90
2019-02-23T17:06:32.851Z,59.80
2019-02-23T17:09:01.208Z,60.50
2019-02-23T17:11:30.175Z,61.10
2019-02-23T17:13:59.250Z,61.70
2019-02-23T17:16:28.250Z,62.50
2019-02-23T17:18:57.338Z,62.90
2019-02-23T17:21:26.584Z,63.50
2019-02-23T17:23:55.571Z,64.30
2019-02-23T17:26:24.487Z,64.80
2019-02-23T17:28:53.631Z,66.40
2019-02-23T17:31:22.717Z,66.50
2019-02-23T17:33:51.742Z,67.20
2019-02-23T17:36:21.217Z,67.60
2019-02-23T17:38:50.285Z,68.50
2019-02-23T17:41:19.387Z,68.40
2019-02-23T17:43:48.369Z,68.70
2019-02-23T17:46:17.436Z,69.00
2019-02-23T17:48:46.427Z,69.50
2019-02-23T17:51:15.659Z,70.20
2019-02-23T17:53:44.754Z,71.00
2019-02-23T17:56:14.649Z,71.20
2019-02-23T17:58:43.953Z,72.60
2019-02-23T18:01:13.080Z,73.30
2019-02-23T18:03:42.236Z,73.70
2019-02-23T18:06:11.275Z,73.70
2019-02-23T18:08:40.348Z,74.60
2019-02-23T18:11:09.460Z,75.20
2019-02-23T18:13:38.456Z,75.90
2019-02-23T18:16:07.539Z,76.70
2019-02-23T18:18:36.618Z,77.50
2019-02-23T18:21:05.705Z,78.10
2019-02-23T18:23:34.640Z,79.00
2019-02-23T18:26:03.657Z,79.20
2019-02-23T18:28:32.699Z,79.50
2019-02-23T18:31:01.815Z,79.40
2019-02-23T18:33:30.884Z,79.10
2019-02-23T18:35:59.948Z,78.10
2019-02-23T18:38:28.946Z,78.20
2019-02-23T18:40:58.023Z,78.40
2019-02-23T18:43:27.079Z,77.70
2019-02-23T18:45:56.134Z,77.80
2019-02-23T18:48:25.196Z,77.60
2019-02-23T18:50:54.215Z,77.20
2019-02-23T18:53:23.187Z,77.10
2019-02-23T18:55:52.109Z,77.00
2019-02-23T18:58:21.121Z,76.20
2019-02-23T19:00:50.231Z,76.40
2019-02-23T19:03:19.264Z,76.20
2019-02-23T19:05:50.085Z,76.50
2019-02-23T19:08:18.958Z,76.50
2019-02-23T19:10:48.020Z,76.30
2019-02-23T19:13:17.143Z,76.40
2019-02-23T19:15:46.227Z,76.60
2019-02-23T19:18:15.265Z,76.40
2019-02-23T19:20:44.387Z,76.00
2019-02-23T19:23:13.408Z,76.80
2019-02-23T19:25:42.431Z,76.20
2019-02-23T19:28:11.551Z,75.80
2019-02-23T19:30:40.603Z,75.60
2019-02-23T19:33:09.646Z,75.10
2019-02-23T19:35:38.698Z,75.50
2019-02-23T19:38:07.690Z,75.40
2019-02-23T19:40:36.764Z,74.90
2019-02-23T19:43:05.835Z,74.60
2019-02-23T19:45:35.010Z,74.10
2019-02-23T19:48:04.100Z,73.40
2019-02-23T19:50:39.894Z,73.00
2019-02-23T19:53:08.872Z,72.50
2019-02-23T19:55:37.959Z,72.00
2019-02-23T19:58:07.031Z,72.00
2019-02-23T20:00:36.047Z,71.60
2019-02-23T20:03:05.115Z,71.50
2019-02-23T20:05:34.231Z,71.00
2019-02-23T20:08:03.221Z,70.70
2019-02-23T20:10:32.280Z,71.00
2019-02-23T20:13:01.345Z,71.40
2019-02-23T20:15:30.405Z,71.30
2019-02-23T20:17:59.455Z,71.00
2019-02-23T20:20:28.454Z,70.80
2019-02-23T20:22:57.436Z,71.10
2019-02-23T20:25:26.433Z,71.30
2019-02-23T20:27:55.464Z,71.30
2019-02-23T20:30:24.443Z,71.20
2019-02-23T20:32:53.368Z,71.00
2019-02-23T20:35:22.374Z,71.20
2019-02-23T20:37:51.385Z,71.20
2019-02-23T20:40:20.519Z,71.30
2019-02-23T20:42:49.523Z,71.20
2019-02-23T20:45:18.614Z,71.10
2019-02-23T20:47:47.696Z,71.90
2019-02-23T20:50:16.847Z,71.80
2019-02-23T20:52:45.931Z,72.30
2019-02-23T20:55:15.075Z,72.40
2019-02-23T20:57:44.279Z,72.10
2019-02-23T21:00:13.451Z,72.90
2019-02-23T21:02:42.649Z,72.60
2019-02-23T21:05:11.881Z,72.60
2019-02-23T21:07:40.903Z,73.20
2019-02-23T21:10:10.164Z,72.90
2019-02-23T21:12:39.152Z,72.90
2019-02-23T21:15:08.234Z,73.80
2019-02-23T21:17:37.307Z,73.50
2019-02-23T21:20:06.416Z,74.10
2019-02-23T21:22:35.420Z,75.60
2019-02-23T21:25:04.641Z,76.20
2019-02-23T21:27:33.712Z,76.10
2019-02-23T21:30:02.787Z,76.50
2019-02-23T21:32:31.809Z,76.30
2019-02-23T21:35:00.822Z,76.10
2019-02-23T21:37:29.835Z,76.30
2019-02-23T21:39:58.803Z,76.40
2019-02-23T21:42:27.800Z,77.10
2019-02-23T21:44:58.000Z,76.80
2019-02-23T21:47:27.135Z,76.60
2019-02-23T21:49:56.128Z,77.00
2019-02-23T21:52:25.219Z,78.10
2019-02-23T21:54:54.200Z,77.50
2019-02-23T21:57:23.200Z,77.30
2019-02-23T21:59:52.285Z,78.20
2019-02-23T22:02:40.492Z,79.20
2019-02-23T22:05:12.493Z,80.40
2019-02-23T22:07:40.331Z,81.20
2019-02-23T22:10:09.502Z,81.90
2019-02-23T22:12:38.582Z,82.30
2019-02-23T22:15:07.675Z,82.70
2019-02-23T22:17:36.818Z,83.00
2019-02-23T22:20:05.996Z,83.60
2019-02-23T22:22:35.136Z,84.20
2019-02-23T22:25:04.273Z,84.30
2019-02-23T22:27:33.435Z,83.80
2019-02-23T22:30:02.416Z,83.20
2019-02-23T22:32:31.501Z,83.40
2019-02-23T22:35:00.661Z,83.90
2019-02-23T22:37:29.772Z,84.20
2019-02-23T22:39:58.879Z,84.20
2019-02-23T22:42:27.971Z,84.00
2019-02-23T22:44:56.969Z,84.30
2019-02-23T22:47:25.983Z,84.40
2019-02-23T22:49:55.063Z,84.60
2019-02-23T22:52:24.143Z,84.70
2019-02-23T22:54:53.079Z,84.80
2019-02-23T22:57:22.115Z,85.10
2019-02-23T22:59:51.198Z,85.00
2019-02-23T23:02:20.258Z,84.50
2019-02-23T23:04:49.367Z,83.60
2019-02-23T23:07:18.513Z,83.90
2019-02-23T23:09:47.615Z,83.30
2019-02-23T23:12:16.688Z,82.80
2019-02-23T23:14:45.673Z,81.90
2019-02-23T23:17:14.728Z,82.80
2019-02-23T23:19:43.743Z,82.60
2019-02-23T23:22:12.740Z,81.80
2019-02-23T23:24:41.828Z,80.90
2019-02-23T23:27:10.818Z,79.10
2019-02-23T23:29:39.875Z,78.40
2019-02-23T23:32:08.887Z,77.20
2019-02-23T23:34:37.855Z,76.50
2019-02-23T23:37:06.910Z,76.10
2019-02-23T23:39:35.920Z,76.00
2019-02-23T23:42:04.980Z,75.70
2019-02-23T23:44:33.998Z,75.20
2019-02-23T23:47:03.107Z,74.90
2019-02-23T23:49:32.132Z,74.40
2019-02-23T23:52:01.226Z,74.10
2019-02-23T23:54:30.354Z,74.00
2019-02-23T23:56:59.326Z,73.80
2019-02-23T23:59:28.358Z,73.40
